createdAt,value
2018-12-10T00:01:15.614Z,4.90
2018-12-10T00:03:49.882Z,4.90
2018-12-10T00:06:24.162Z,4.90
2018-12-10T00:08:58.627Z,4.90
2018-12-10T00:11:33.082Z,4.80
2018-12-10T00:14:07.483Z,4.80
2018-12-10T00:16:41.947Z,4.80
2018-12-10T00:19:16.308Z,4.80
2018-12-10T00:21:50.618Z,4.90
2018-12-10T00:24:25.210Z,4.80
2018-12-10T00:26:59.749Z,4.80
2018-12-10T00:29:34.196Z,4.80
2018-12-10T00:32:08.456Z,4.80
2018-12-10T00:34:42.948Z,4.70
2018-12-10T00:37:17.339Z,4.70
2018-12-10T00:39:52.189Z,4.70
2018-12-10T00:42:26.684Z,4.70
2018-12-10T00:45:01.070Z,4.80
2018-12-10T00:47:35.540Z,4.80
2018-12-10T00:50:10.057Z,4.70
2018-12-10T00:52:44.350Z,4.70
2018-12-10T00:55:18.636Z,4.70
2018-12-10T00:57:53.066Z,4.70
2018-12-10T01:00:27.463Z,4.80
2018-12-10T01:03:01.684Z,4.80
2018-12-10T01:05:36.134Z,4.70
2018-12-10T01:08:10.950Z,4.70
2018-12-10T01:10:45.422Z,4.70
2018-12-10T01:13:21.038Z,4.70
2018-12-10T01:15:55.279Z,4.70
2018-12-10T01:18:31.789Z,4.70
2018-12-10T01:21:06.326Z,4.70
2018-12-10T01:23:40.624Z,4.70
2018-12-10T01:26:14.779Z,4.70
2018-12-10T01:28:49.135Z,4.70
2018-12-10T01:31:23.619Z,4.60
2018-12-10T01:33:57.964Z,4.60
2018-12-10T01:36:32.375Z,4.50
2018-12-10T01:39:06.602Z,4.50
2018-12-10T01:41:43.257Z,4.50
2018-12-10T01:44:17.567Z,4.50
2018-12-10T01:46:52.134Z,4.50
2018-12-10T01:49:26.371Z,4.50
2018-12-10T01:52:01.891Z,4.60
2018-12-10T01:54:36.194Z,4.60
2018-12-10T01:57:10.599Z,4.50
2018-12-10T01:59:45.445Z,4.50
2018-12-10T02:02:19.935Z,4.50
2018-12-10T02:04:54.347Z,4.40
2018-12-10T02:07:28.730Z,4.40
2018-12-10T02:10:03.059Z,4.30
2018-12-10T02:12:37.307Z,4.30
2018-12-10T02:15:11.918Z,4.30
2018-12-10T02:17:46.234Z,4.30
2018-12-10T02:20:20.557Z,4.30
2018-12-10T02:22:54.755Z,4.30
2018-12-10T02:25:29.214Z,4.30
2018-12-10T02:28:03.735Z,4.20
2018-12-10T02:30:38.074Z,4.20
2018-12-10T02:33:12.530Z,4.20
2018-12-10T02:35:46.812Z,4.30
2018-12-10T02:38:21.377Z,4.30
2018-12-10T02:40:55.655Z,4.20
2018-12-10T02:43:30.080Z,4.30
2018-12-10T02:46:04.380Z,4.30
2018-12-10T02:48:38.678Z,4.30
2018-12-10T02:51:13.100Z,4.20
2018-12-10T02:53:48.646Z,4.20
2018-12-10T02:56:23.038Z,4.30
2018-12-10T02:58:57.231Z,4.30
2018-12-10T03:01:31.857Z,4.30
2018-12-10T03:04:06.326Z,4.30
2018-12-10T03:06:41.677Z,4.20
2018-12-10T03:09:16.141Z,4.20
2018-12-10T03:11:50.544Z,4.20
2018-12-10T03:14:24.756Z,4.30
2018-12-10T03:16:59.219Z,4.30
2018-12-10T03:19:33.559Z,4.30
2018-12-10T03:22:08.127Z,4.30
2018-12-10T03:24:42.497Z,4.30
2018-12-10T03:27:16.980Z,4.30
2018-12-10T03:29:51.325Z,4.30
2018-12-10T03:32:25.836Z,4.20
2018-12-10T03:35:00.142Z,4.10
2018-12-10T03:37:34.386Z,4.10
2018-12-10T03:40:08.777Z,4.10
2018-12-10T03:42:43.069Z,4.20
2018-12-10T03:45:17.617Z,4.20
2018-12-10T03:47:51.859Z,4.20
2018-12-10T03:50:26.244Z,4.20
2018-12-10T03:53:01.344Z,4.10
2018-12-10T03:55:35.672Z,4.10
2018-12-10T03:58:10.035Z,4.10
2018-12-10T04:00:44.365Z,4.10
2018-12-10T04:03:18.611Z,4.20
2018-12-10T04:05:52.961Z,4.10
2018-12-10T04:08:27.144Z,4.10
2018-12-10T04:11:02.751Z,4.10
2018-12-10T04:13:37.183Z,4.10
2018-12-10T04:16:11.378Z,4.10
2018-12-10T04:18:45.939Z,4.10
2018-12-10T04:21:20.391Z,4.10
2018-12-10T04:23:54.587Z,4.00
2018-12-10T04:26:29.159Z,4.00
2018-12-10T04:29:03.503Z,4.00
2018-12-10T04:31:38.002Z,4.00
2018-12-10T04:34:12.341Z,4.10
2018-12-10T04:36:46.691Z,4.10
2018-12-10T04:39:21.509Z,4.10
2018-12-10T04:41:55.892Z,4.00
2018-12-10T04:44:30.175Z,4.00
2018-12-10T04:47:04.578Z,4.00
2018-12-10T04:49:39.041Z,4.10
2018-12-10T04:52:13.472Z,4.10
2018-12-10T04:54:47.881Z,4.10
2018-12-10T04:57:22.304Z,4.20
2018-12-10T04:59:56.856Z,4.20
2018-12-10T05:02:31.280Z,4.20
2018-12-10T05:05:05.784Z,4.20
2018-12-10T05:07:40.186Z,4.30
2018-12-10T05:10:14.859Z,4.20
2018-12-10T05:12:49.226Z,4.10
2018-12-10T05:15:23.850Z,4.10
2018-12-10T05:17:58.111Z,4.10
2018-12-10T05:20:32.999Z,4.00
2018-12-10T05:23:07.328Z,4.10
2018-12-10T05:25:41.694Z,4.00
2018-12-10T05:28:19.399Z,4.00
2018-12-10T05:30:53.774Z,4.00
2018-12-10T05:33:27.967Z,3.90
2018-12-10T05:36:02.803Z,3.90
2018-12-10T05:38:37.227Z,4.00
2018-12-10T05:41:11.374Z,3.90
2018-12-10T05:43:45.652Z,3.80
2018-12-10T05:46:20.152Z,3.80
2018-12-10T05:48:54.512Z,3.80
2018-12-10T05:51:36.281Z,3.80
2018-12-10T05:54:10.551Z,3.70
2018-12-10T05:56:44.895Z,3.80
2018-12-10T05:59:19.319Z,3.80
2018-12-10T06:01:53.733Z,3.70
2018-12-10T06:04:28.200Z,3.70
2018-12-10T06:07:02.509Z,3.70
2018-12-10T06:09:36.933Z,3.60
2018-12-10T06:12:11.421Z,3.50
2018-12-10T06:14:45.635Z,3.60
2018-12-10T06:17:20.317Z,3.50
2018-12-10T06:19:56.749Z,3.60
2018-12-10T06:22:31.297Z,3.60
2018-12-10T06:25:09.864Z,3.50
2018-12-10T06:27:44.339Z,3.50
2018-12-10T06:30:19.173Z,3.50
2018-12-10T06:32:54.903Z,3.50
2018-12-10T06:35:29.400Z,3.50
2018-12-10T06:38:04.123Z,3.60
2018-12-10T06:40:38.609Z,3.60
2018-12-10T06:43:13.022Z,3.60
2018-12-10T06:45:48.236Z,3.70
2018-12-10T06:48:24.273Z,3.80
2018-12-10T06:51:03.014Z,3.70
2018-12-10T06:53:43.222Z,3.70
2018-12-10T06:56:17.794Z,3.70
2018-12-10T06:58:52.731Z,3.70
2018-12-10T07:01:27.115Z,3.60
2018-12-10T07:04:01.739Z,3.60
2018-12-10T07:06:36.148Z,3.60
2018-12-10T07:09:10.616Z,3.70
2018-12-10T07:11:45.165Z,3.60
2018-12-10T07:14:19.383Z,3.60
2018-12-10T07:16:54.601Z,3.60
2018-12-10T07:19:29.200Z,3.50
2018-12-10T07:22:03.579Z,3.50
2018-12-10T07:24:38.244Z,3.50
2018-12-10T07:27:12.629Z,3.50
2018-12-10T07:29:47.043Z,3.50
2018-12-10T07:32:21.708Z,3.50
2018-12-10T07:34:58.066Z,3.60
2018-12-10T07:37:32.604Z,3.60
2018-12-10T07:40:07.006Z,3.60
2018-12-10T07:42:43.148Z,3.60
2018-12-10T07:45:17.867Z,3.60
2018-12-10T07:47:52.107Z,3.50
2018-12-10T07:50:26.505Z,3.50
2018-12-10T07:53:00.793Z,3.50
2018-12-10T07:55:36.256Z,3.50
2018-12-10T07:58:10.713Z,3.50
2018-12-10T08:00:45.252Z,3.50
2018-12-10T08:03:19.707Z,3.50
2018-12-10T08:05:54.804Z,3.50
2018-12-10T08:08:29.869Z,3.50
2018-12-10T08:11:04.240Z,3.50
2018-12-10T08:13:39.914Z,3.50
2018-12-10T08:16:21.470Z,3.50
2018-12-10T08:18:55.834Z,3.50
2018-12-10T08:21:31.173Z,3.60
2018-12-10T08:24:05.788Z,3.60
2018-12-10T08:26:40.083Z,3.60
2018-12-10T08:29:28.642Z,3.60
2018-12-10T08:32:02.875Z,3.60
2018-12-10T08:37:24.023Z,3.60
2018-12-10T08:39:58.335Z,3.70
2018-12-10T08:42:32.764Z,3.70
2018-12-10T08:45:07.905Z,3.80
2018-12-10T08:47:43.009Z,3.80
2018-12-10T08:50:17.343Z,3.90
2018-12-10T08:52:52.465Z,4.00
2018-12-10T08:55:26.998Z,4.10
2018-12-10T08:58:03.743Z,4.10
2018-12-10T09:00:38.116Z,4.10
2018-12-10T09:03:12.415Z,4.20
2018-12-10T09:05:46.920Z,4.20
2018-12-10T09:08:21.893Z,4.30
2018-12-10T09:10:56.304Z,4.40
2018-12-10T09:13:31.303Z,4.40
2018-12-10T09:16:05.707Z,4.40
2018-12-10T09:18:40.526Z,4.40
2018-12-10T09:21:14.957Z,4.30
2018-12-10T09:23:49.312Z,4.30
2018-12-10T09:26:23.720Z,4.20
2018-12-10T09:28:58.143Z,4.20
2018-12-10T09:31:32.498Z,4.30
2018-12-10T09:34:06.780Z,4.30
2018-12-10T09:36:42.259Z,4.40
2018-12-10T09:39:17.175Z,4.50
2018-12-10T09:41:54.963Z,4.70
2018-12-10T09:44:29.635Z,4.80
2018-12-10T09:47:04.558Z,5.00
2018-12-10T09:49:38.998Z,5.00
2018-12-10T09:52:13.251Z,5.10
2018-12-10T09:54:47.694Z,5.10
2018-12-10T09:57:24.752Z,5.10
2018-12-10T09:59:59.268Z,5.00
2018-12-10T10:02:34.307Z,5.00
2018-12-10T10:05:08.861Z,5.00
2018-12-10T10:07:43.155Z,4.70
2018-12-10T10:10:17.605Z,4.50
2018-12-10T10:12:53.670Z,4.30
2018-12-10T10:15:28.201Z,4.20
2018-12-10T10:18:03.541Z,4.20
2018-12-10T10:20:38.019Z,4.30
2018-12-10T10:23:12.456Z,4.30
2018-12-10T10:25:46.923Z,4.10
2018-12-10T10:28:21.571Z,4.00
2018-12-10T10:30:56.011Z,4.00
2018-12-10T10:33:32.453Z,4.10
2018-12-10T10:36:08.663Z,4.10
2018-12-10T10:38:43.081Z,4.20
2018-12-10T10:41:17.297Z,4.30
2018-12-10T10:43:51.831Z,4.50
2018-12-10T10:46:26.475Z,4.60
2018-12-10T10:49:00.976Z,4.80
2018-12-10T10:51:35.559Z,4.90
2018-12-10T10:54:09.918Z,4.90
2018-12-10T10:56:44.459Z,4.90
2018-12-10T10:59:18.836Z,5.00
2018-12-10T11:01:59.180Z,4.90
2018-12-10T11:04:37.648Z,5.00
2018-12-10T11:07:10.151Z,4.90
2018-12-10T11:09:45.654Z,4.90
2018-12-10T11:12:20.916Z,5.00
2018-12-10T11:14:55.794Z,5.00
2018-12-10T11:17:31.984Z,5.00
2018-12-10T11:20:07.511Z,4.90
2018-12-10T11:22:42.641Z,4.90
2018-12-10T11:25:17.138Z,4.70
2018-12-10T11:27:51.712Z,4.60
2018-12-10T11:30:27.139Z,4.70
2018-12-10T11:33:01.420Z,4.70
2018-12-10T11:35:35.993Z,4.80
2018-12-10T11:38:10.439Z,4.80
2018-12-10T11:40:45.407Z,4.80
2018-12-10T11:43:20.891Z,4.90
2018-12-10T11:45:58.171Z,5.20
2018-12-10T11:48:35.298Z,5.20
2018-12-10T11:51:14.061Z,5.10
2018-12-10T11:53:48.810Z,5.00
2018-12-10T11:56:23.427Z,5.00
2018-12-10T11:58:57.904Z,4.90
2018-12-10T12:01:33.467Z,4.80
2018-12-10T12:04:07.976Z,4.80
2018-12-10T12:06:44.579Z,4.90
2018-12-10T12:09:19.014Z,5.00
2018-12-10T12:11:53.454Z,5.30
2018-12-10T12:14:28.193Z,5.50
2018-12-10T12:17:02.789Z,5.50
2018-12-10T12:19:37.858Z,5.40
2018-12-10T12:22:12.407Z,5.30
2018-12-10T12:24:47.053Z,5.40
2018-12-10T12:27:21.364Z,5.40
2018-12-10T12:29:56.632Z,5.50
2018-12-10T12:32:32.303Z,5.50
2018-12-10T12:35:08.068Z,5.50
2018-12-10T12:37:42.633Z,5.40
2018-12-10T12:40:17.058Z,5.40
2018-12-10T12:42:51.462Z,5.30
2018-12-10T12:45:26.619Z,5.30
2018-12-10T12:48:02.806Z,5.30
2018-12-10T12:50:37.430Z,5.30
2018-12-10T12:53:12.199Z,5.20
2018-12-10T12:55:47.109Z,5.10
2018-12-10T12:58:21.603Z,5.00
2018-12-10T13:00:59.792Z,5.00
2018-12-10T13:03:45.215Z,5.00
2018-12-10T13:06:27.729Z,5.20
2018-12-10T13:09:02.715Z,5.30
2018-12-10T13:11:39.070Z,5.50
2018-12-10T13:17:23.683Z,5.80
2018-12-10T13:20:05.729Z,6.10
2018-12-10T13:25:37.397Z,5.50
2018-12-10T13:28:24.686Z,5.20
2018-12-10T13:31:03.610Z,5.10
2018-12-10T13:33:46.135Z,5.00
2018-12-10T13:36:30.119Z,5.00
2018-12-10T13:41:55.850Z,5.00
2018-12-10T13:44:30.347Z,5.00
2018-12-10T13:47:06.339Z,5.10
2018-12-10T13:49:41.767Z,5.10
2018-12-10T13:52:16.177Z,5.10
2018-12-10T13:54:52.023Z,5.10
2018-12-10T13:57:28.203Z,5.10
2018-12-10T14:00:02.899Z,5.30
2018-12-10T14:02:37.361Z,5.20
2018-12-10T14:05:14.090Z,5.30
2018-12-10T14:07:48.507Z,5.30
2018-12-10T14:10:23.021Z,5.10
2018-12-10T14:12:57.407Z,5.10
2018-12-10T14:15:32.233Z,4.90
2018-12-10T14:18:06.874Z,4.90
2018-12-10T14:20:42.105Z,4.80
2018-12-10T14:23:17.229Z,4.70
2018-12-10T14:25:51.816Z,4.80
2018-12-10T14:28:27.540Z,4.90
2018-12-10T14:31:03.241Z,4.90
2018-12-10T14:33:42.348Z,5.00
2018-12-10T14:36:19.323Z,5.10
2018-12-10T14:38:53.747Z,5.00
2018-12-10T14:41:28.761Z,4.90
2018-12-10T14:44:03.272Z,4.90
2018-12-10T14:46:40.189Z,4.90
2018-12-10T14:49:15.876Z,4.90
2018-12-10T14:51:51.126Z,4.90
2018-12-10T14:54:25.775Z,4.90
2018-12-10T14:57:00.906Z,4.90
2018-12-10T14:59:35.737Z,4.80
2018-12-10T15:02:10.347Z,4.80
2018-12-10T15:04:48.427Z,4.80
2018-12-10T15:07:22.818Z,4.80
2018-12-10T15:09:58.295Z,4.80
2018-12-10T15:12:32.756Z,4.80
2018-12-10T15:15:08.950Z,4.90
2018-12-10T15:17:43.372Z,4.80
2018-12-10T15:20:19.072Z,4.80
2018-12-10T15:22:54.347Z,4.80
2018-12-10T15:25:29.264Z,4.80
2018-12-10T15:28:03.699Z,4.80
2018-12-10T15:30:39.944Z,4.90
2018-12-10T15:33:15.311Z,4.80
2018-12-10T15:35:51.360Z,4.80
2018-12-10T15:38:32.425Z,4.90
2018-12-10T15:41:08.187Z,4.80
2018-12-10T15:43:43.763Z,4.70
2018-12-10T15:46:21.217Z,4.60
2018-12-10T15:48:56.395Z,4.50
2018-12-10T15:51:32.580Z,4.50
2018-12-10T15:54:12.289Z,4.60
2018-12-10T15:56:49.435Z,4.60
2018-12-10T15:59:24.432Z,4.50
2018-12-10T16:01:59.400Z,4.50
2018-12-10T16:04:34.997Z,4.60
2018-12-10T16:07:10.751Z,4.70
2018-12-10T16:09:49.763Z,4.70
2018-12-10T16:12:24.132Z,4.70
2018-12-10T16:15:00.223Z,4.70
2018-12-10T16:17:37.730Z,4.60
2018-12-10T16:20:14.062Z,4.50
2018-12-10T16:22:49.535Z,4.40
2018-12-10T16:25:24.468Z,4.40
2018-12-10T16:27:59.573Z,4.40
2018-12-10T16:30:44.159Z,4.30
2018-12-10T16:33:18.472Z,4.20
2018-12-10T16:35:53.962Z,4.10
2018-12-10T16:38:28.768Z,4.10
2018-12-10T16:41:03.366Z,4.10
2018-12-10T16:43:37.922Z,4.10
2018-12-10T16:46:12.162Z,4.10
2018-12-10T16:48:46.839Z,4.10
2018-12-10T16:51:21.156Z,4.10
2018-12-10T16:53:57.114Z,4.10
2018-12-10T16:56:33.982Z,4.00
2018-12-10T16:59:08.731Z,4.00
2018-12-10T17:01:44.489Z,3.90
2018-12-10T17:04:19.123Z,3.80
2018-12-10T17:06:54.397Z,3.70
2018-12-10T17:09:29.210Z,3.70
2018-12-10T17:12:03.837Z,3.70
2018-12-10T17:14:38.272Z,3.80
2018-12-10T17:17:13.564Z,3.80
2018-12-10T17:19:50.695Z,3.80
2018-12-10T17:22:25.126Z,3.90
2018-12-10T17:24:59.681Z,3.90
2018-12-10T17:27:33.916Z,4.00
2018-12-10T17:30:08.587Z,4.00
2018-12-10T17:32:43.015Z,4.10
2018-12-10T17:35:17.504Z,4.10
2018-12-10T17:37:51.691Z,4.10
2018-12-10T17:40:26.019Z,4.10
2018-12-10T17:43:00.492Z,4.10
2018-12-10T17:45:35.418Z,4.10
2018-12-10T17:48:09.872Z,4.00
2018-12-10T17:50:44.081Z,4.00
2018-12-10T17:53:18.612Z,4.00
2018-12-10T17:55:53.045Z,4.00
2018-12-10T17:58:27.565Z,4.00
2018-12-10T18:01:02.040Z,4.00
2018-12-10T18:03:36.394Z,4.00
2018-12-10T18:06:10.858Z,4.00
2018-12-10T18:08:46.789Z,3.90
2018-12-10T18:11:21.257Z,3.90
2018-12-10T18:13:56.369Z,3.80
2018-12-10T18:16:30.841Z,3.80
2018-12-10T18:19:06.369Z,3.80
2018-12-10T18:21:43.505Z,3.90
2018-12-10T18:24:17.956Z,3.90
2018-12-10T18:26:52.818Z,4.00
2018-12-10T18:29:29.682Z,4.00
2018-12-10T18:32:04.219Z,4.00
2018-12-10T18:34:38.649Z,3.90
2018-12-10T18:37:13.339Z,3.80
2018-12-10T18:39:54.421Z,3.70
2018-12-10T18:42:28.902Z,3.80
2018-12-10T18:45:03.972Z,3.70
2018-12-10T18:47:38.530Z,3.70
2018-12-10T18:50:13.376Z,3.70
2018-12-10T18:52:50.104Z,3.60
2018-12-10T18:55:24.546Z,3.70
2018-12-10T18:57:59.636Z,3.70
2018-12-10T19:00:34.265Z,3.70
2018-12-10T19:03:09.852Z,3.70
2018-12-10T19:05:44.102Z,3.80
2018-12-10T19:08:18.308Z,3.80
2018-12-10T19:10:53.612Z,3.80
2018-12-10T19:13:28.979Z,3.90
2018-12-10T19:16:04.035Z,3.80
2018-12-10T19:18:39.389Z,3.80
2018-12-10T19:21:13.926Z,3.80
2018-12-10T19:23:49.023Z,3.90
2018-12-10T19:26:23.305Z,3.90
2018-12-10T19:28:57.689Z,4.00
2018-12-10T19:31:47.223Z,4.00
2018-12-10T19:34:21.776Z,4.00
2018-12-10T19:36:57.310Z,4.00
2018-12-10T19:39:31.938Z,4.00
2018-12-10T19:42:06.650Z,4.00
2018-12-10T19:44:41.184Z,4.00
2018-12-10T19:47:15.519Z,4.00
2018-12-10T19:49:51.071Z,4.00
2018-12-10T19:52:26.555Z,4.00
2018-12-10T19:55:01.589Z,4.00
2018-12-10T19:57:36.011Z,4.00
2018-12-10T20:00:10.994Z,4.00
2018-12-10T20:02:45.753Z,4.00
2018-12-10T20:05:28.730Z,4.00
2018-12-10T20:08:04.722Z,4.10
2018-12-10T20:10:44.840Z,4.20
2018-12-10T20:13:23.950Z,4.20
2018-12-10T20:15:59.082Z,4.20
2018-12-10T20:18:33.803Z,4.20
2018-12-10T20:21:08.041Z,4.20
2018-12-10T20:23:45.923Z,4.20
2018-12-10T20:26:21.684Z,4.20
2018-12-10T20:28:56.183Z,4.10
2018-12-10T20:31:31.562Z,4.10
2018-12-10T20:34:08.985Z,4.10
2018-12-10T20:36:43.639Z,4.10
2018-12-10T20:39:18.016Z,4.10
2018-12-10T20:41:52.421Z,4.10
2018-12-10T20:44:32.548Z,4.10
2018-12-10T20:47:08.335Z,4.00
2018-12-10T20:49:43.140Z,3.90
2018-12-10T20:52:18.921Z,3.80
2018-12-10T20:54:53.417Z,3.80
2018-12-10T20:57:28.038Z,3.90
2018-12-10T21:00:16.639Z,4.00
2018-12-10T21:02:55.368Z,4.00
2018-12-10T21:05:29.807Z,4.10
2018-12-10T21:08:26.851Z,4.10
2018-12-10T21:11:07.164Z,3.90
2018-12-10T21:13:49.162Z,3.80
2018-12-10T21:19:11.787Z,3.80
2018-12-10T21:21:49.241Z,3.80
2018-12-10T21:24:29.261Z,3.80
2018-12-10T21:27:04.906Z,3.80
2018-12-10T21:29:39.255Z,3.80
2018-12-10T21:32:14.490Z,3.90
2018-12-10T21:34:50.503Z,3.90
2018-12-10T21:37:28.167Z,3.80
2018-12-10T21:40:10.123Z,3.80
2018-12-10T21:42:45.720Z,3.70
2018-12-10T21:45:20.782Z,3.60
2018-12-10T21:47:55.681Z,3.60
2018-12-10T21:50:30.800Z,3.60
2018-12-10T21:53:06.194Z,3.60
2018-12-10T21:55:40.782Z,3.50
2018-12-10T21:58:15.388Z,3.50
2018-12-10T22:00:49.714Z,3.60
2018-12-10T22:03:24.207Z,3.60
2018-12-10T22:05:59.221Z,3.60
2018-12-10T22:08:34.264Z,3.60
2018-12-10T22:11:10.667Z,3.60
2018-12-10T22:13:46.516Z,3.70
2018-12-10T22:16:21.236Z,3.70
2018-12-10T22:19:00.173Z,3.70
2018-12-10T22:21:35.930Z,3.70
2018-12-10T22:24:11.007Z,3.70
2018-12-10T22:26:46.447Z,3.70
2018-12-10T22:29:26.000Z,3.70
2018-12-10T22:32:00.285Z,3.70
2018-12-10T22:34:34.467Z,3.70
2018-12-10T22:37:10.035Z,3.70
2018-12-10T22:39:44.332Z,3.70
2018-12-10T22:42:18.466Z,3.70
2018-12-10T22:44:53.728Z,3.70
2018-12-10T22:47:29.843Z,3.70
2018-12-10T22:50:05.447Z,3.70
2018-12-10T22:52:45.418Z,3.60
2018-12-10T22:55:31.139Z,3.60
2018-12-10T22:58:05.996Z,3.70
2018-12-10T23:00:42.107Z,3.70
2018-12-10T23:03:18.483Z,3.70
2018-12-10T23:05:54.291Z,3.80
2018-12-10T23:08:30.000Z,3.80
2018-12-10T23:11:05.253Z,3.80
2018-12-10T23:13:40.253Z,3.80
2018-12-10T23:16:14.908Z,3.90
2018-12-10T23:18:49.386Z,3.90
2018-12-10T23:21:25.065Z,3.90
2018-12-10T23:24:04.323Z,3.80
2018-12-10T23:26:40.778Z,3.80
2018-12-10T23:29:16.752Z,3.70
2018-12-10T23:31:54.847Z,3.70
2018-12-10T23:34:30.567Z,3.70
2018-12-10T23:37:05.713Z,3.70
2018-12-10T23:39:40.839Z,3.70
2018-12-10T23:42:16.640Z,3.70
2018-12-10T23:44:56.071Z,3.80
2018-12-10T23:47:34.854Z,3.80
2018-12-10T23:50:09.574Z,3.80
2018-12-10T23:52:44.102Z,3.80
2018-12-10T23:55:19.179Z,3.80
2018-12-10T23:57:53.725Z,3.80
